KHDN

Yampa Valley Airport

Hayden, Colorado, USA
METAR KHDN 201956Z AUTO 34009KT 10SM CLR 26/02 A3023 RMK AO2 SLP161 T02560017
Observed Flight Rules
Aug-20 @ 19:56 UTC (33 minutes ago) Visual Flight Rules
Wind Visibility Clouds
340° at 9 knots 10 miles
  • Clear skies
Temperatures Readings
Current 26°C / 79°F
Dewpoint 2°C / 36°F
Humidity 21%
Altimeter 30.23" Hg
Pressure 1016.1 hPa
Elevation 2012
METAR KHDN 201956Z AUTO 34009KT 10SM CLR 26/02 A3023 RMK AO2 SLP161 T02560017
Observed Flight Rules
Aug-20 @ 19:56 UTC
(33 minutes ago)
VFR
Wind Visibility
340° at 9 knots 10 miles
Clouds
  • Clear skies
Temperature Dewpoint
26°C / 79°F 2°C / 36°F
Humidity Altimeter Pressure
21% 30.23" Hg 1016.1 hPa